Terminal Aerodrome Forecast
Issued by NWS

Home | Current Version | Previous Version | Text Only | Print | Product List | Glossary On
Versions: 1 2 3 4 5 6 7 8 9 10 11 12 13 14 15 16 17 18 19 20 21 22 23 24
000
FTUS45 KCYS 252320
TAFRWL
TAF
KRWL 252320Z 2600/2624 25022G33KT P6SM SCT120
      TEMPO 2600/2602 4SM BLSN
     FM260200 26015KT P6SM SCT120
     FM261500 24019G31KT P6SM SCT120=

USA.gov is the U.S. government's official web portal to all federal, state and local government web resources and services.